sensor_id;sensor_type;location;lat;lon;timestamp;temperature;humidity
30473;DHT22;17263;48.160;11.452;2023-03-31T00:00:56;8.00;99.90
30473;DHT22;17263;48.160;11.452;2023-03-31T00:03:26;8.00;99.90
30473;DHT22;17263;48.160;11.452;2023-03-31T00:05:56;7.90;99.90
30473;DHT22;17263;48.160;11.452;2023-03-31T00:08:23;7.90;99.90
30473;DHT22;17263;48.160;11.452;2023-03-31T00:10:49;7.90;99.90
30473;DHT22;17263;48.160;11.452;2023-03-31T00:13:16;7.90;99.90
30473;DHT22;17263;48.160;11.452;2023-03-31T00:15:42;8.00;99.90
30473;DHT22;17263;48.160;11.452;2023-03-31T00:18:08;8.00;99.90
30473;DHT22;17263;48.160;11.452;2023-03-31T00:20:34;8.10;99.90
30473;DHT22;17263;48.160;11.452;2023-03-31T00:23:03;8.10;99.90
30473;DHT22;17263;48.160;11.452;2023-03-31T00:25:31;8.10;99.90
30473;DHT22;17263;48.160;11.452;2023-03-31T00:27:57;8.10;99.90
30473;DHT22;17263;48.160;11.452;2023-03-31T00:30:23;8.20;99.90
30473;DHT22;17263;48.160;11.452;2023-03-31T00:32:49;8.20;99.90
30473;DHT22;17263;48.160;11.452;2023-03-31T00:35:15;8.20;99.90
30473;DHT22;17263;48.160;11.452;2023-03-31T00:37:41;8.20;99.90
30473;DHT22;17263;48.160;11.452;2023-03-31T00:40:08;8.20;99.90
30473;DHT22;17263;48.160;11.452;2023-03-31T00:42:41;8.30;99.90
30473;DHT22;17263;48.160;11.452;2023-03-31T00:48:02;8.30;99.90
30473;DHT22;17263;48.160;11.452;2023-03-31T00:50:34;8.40;99.90
30473;DHT22;17263;48.160;11.452;2023-03-31T00:53:06;8.40;99.90
30473;DHT22;17263;48.160;11.452;2023-03-31T00:55:44;8.40;99.90
30473;DHT22;17263;48.160;11.452;2023-03-31T00:58:12;8.50;99.90
30473;DHT22;17263;48.160;11.452;2023-03-31T01:00:40;8.50;99.90
30473;DHT22;17263;48.160;11.452;2023-03-31T01:03:07;8.60;99.90
30473;DHT22;17263;48.160;11.452;2023-03-31T01:05:56;8.60;99.90
30473;DHT22;17263;48.160;11.452;2023-03-31T01:08:23;8.60;99.90
30473;DHT22;17263;48.160;11.452;2023-03-31T01:10:54;8.60;99.90
30473;DHT22;17263;48.160;11.452;2023-03-31T01:13:22;8.70;99.90
30473;DHT22;17263;48.160;11.452;2023-03-31T01:15:49;8.70;99.90
30473;DHT22;17263;48.160;11.452;2023-03-31T01:18:16;8.70;99.90
30473;DHT22;17263;48.160;11.452;2023-03-31T01:24:10;8.70;99.90
30473;DHT22;17263;48.160;11.452;2023-03-31T01:37:55;8.60;99.90
30473;DHT22;17263;48.160;11.452;2023-03-31T01:40:34;8.60;99.90
30473;DHT22;17263;48.160;11.452;2023-03-31T01:43:04;8.60;99.90
30473;DHT22;17263;48.160;11.452;2023-03-31T01:51:12;8.60;99.90
30473;DHT22;17263;48.160;11.452;2023-03-31T01:56:36;8.70;99.90
30473;DHT22;17263;48.160;11.452;2023-03-31T01:59:13;8.70;99.90
30473;DHT22;17263;48.160;11.452;2023-03-31T02:01:55;8.70;99.90
30473;DHT22;17263;48.160;11.452;2023-03-31T02:04:40;8.70;99.90
30473;DHT22;17263;48.160;11.452;2023-03-31T02:07:15;8.70;99.90
30473;DHT22;17263;48.160;11.452;2023-03-31T02:09:48;8.70;99.90
30473;DHT22;17263;48.160;11.452;2023-03-31T02:12:16;8.70;99.90
30473;DHT22;17263;48.160;11.452;2023-03-31T02:14:46;8.70;99.90
30473;DHT22;17263;48.160;11.452;2023-03-31T02:17:17;8.70;99.90
30473;DHT22;17263;48.160;11.452;2023-03-31T02:19:49;8.70;99.90
30473;DHT22;17263;48.160;11.452;2023-03-31T02:22:17;8.70;99.90
30473;DHT22;17263;48.160;11.452;2023-03-31T02:24:46;8.80;99.90
30473;DHT22;17263;48.160;11.452;2023-03-31T02:27:25;8.80;99.90
30473;DHT22;17263;48.160;11.452;2023-03-31T02:29:53;8.80;99.90
30473;DHT22;17263;48.160;11.452;2023-03-31T02:32:38;8.80;99.90
30473;DHT22;17263;48.160;11.452;2023-03-31T02:35:11;8.80;99.90
30473;DHT22;17263;48.160;11.452;2023-03-31T02:37:39;8.80;99.90
30473;DHT22;17263;48.160;11.452;2023-03-31T02:40:09;8.80;99.90
30473;DHT22;17263;48.160;11.452;2023-03-31T02:42:37;8.90;99.90
30473;DHT22;17263;48.160;11.452;2023-03-31T02:45:06;9.00;99.90
30473;DHT22;17263;48.160;11.452;2023-03-31T02:47:52;8.90;99.90
30473;DHT22;17263;48.160;11.452;2023-03-31T02:50:22;8.90;99.90
30473;DHT22;17263;48.160;11.452;2023-03-31T02:53:15;9.00;99.90
30473;DHT22;17263;48.160;11.452;2023-03-31T03:05:12;9.00;99.90
30473;DHT22;17263;48.160;11.452;2023-03-31T03:07:25;9.10;99.90
30473;DHT22;17263;48.160;11.452;2023-03-31T03:12:31;9.10;99.90
30473;DHT22;17263;48.160;11.452;2023-03-31T03:15:23;9.00;99.90
30473;DHT22;17263;48.160;11.452;2023-03-31T03:17:52;9.00;99.90
30473;DHT22;17263;48.160;11.452;2023-03-31T03:20:21;9.00;99.90
30473;DHT22;17263;48.160;11.452;2023-03-31T03:22:47;9.00;99.90
30473;DHT22;17263;48.160;11.452;2023-03-31T03:25:14;9.10;99.90
30473;DHT22;17263;48.160;11.452;2023-03-31T03:27:41;9.20;99.90
30473;DHT22;17263;48.160;11.452;2023-03-31T03:30:10;9.20;99.90
30473;DHT22;17263;48.160;11.452;2023-03-31T03:32:36;9.20;99.90
30473;DHT22;17263;48.160;11.452;2023-03-31T03:35:04;9.20;99.90
30473;DHT22;17263;48.160;11.452;2023-03-31T03:37:31;9.10;99.90
30473;DHT22;17263;48.160;11.452;2023-03-31T03:39:57;9.20;99.90
30473;DHT22;17263;48.160;11.452;2023-03-31T03:42:23;9.20;99.90
30473;DHT22;17263;48.160;11.452;2023-03-31T03:44:49;9.20;99.90
30473;DHT22;17263;48.160;11.452;2023-03-31T03:47:15;9.20;99.90
30473;DHT22;17263;48.160;11.452;2023-03-31T03:49:41;9.20;99.90
30473;DHT22;17263;48.160;11.452;2023-03-31T03:52:08;9.20;99.90
30473;DHT22;17263;48.160;11.452;2023-03-31T03:54:34;9.20;99.90
30473;DHT22;17263;48.160;11.452;2023-03-31T03:57:00;9.20;99.90
30473;DHT22;17263;48.160;11.452;2023-03-31T03:59:26;9.10;99.90
30473;DHT22;17263;48.160;11.452;2023-03-31T04:01:52;9.10;99.90
30473;DHT22;17263;48.160;11.452;2023-03-31T04:04:18;9.10;99.90
30473;DHT22;17263;48.160;11.452;2023-03-31T04:06:44;9.00;99.90
30473;DHT22;17263;48.160;11.452;2023-03-31T04:09:10;9.00;99.90
30473;DHT22;17263;48.160;11.452;2023-03-31T04:11:36;9.00;99.90
30473;DHT22;17263;48.160;11.452;2023-03-31T04:14:03;8.90;99.90
30473;DHT22;17263;48.160;11.452;2023-03-31T04:16:29;8.90;99.90
30473;DHT22;17263;48.160;11.452;2023-03-31T04:18:55;9.00;99.90
30473;DHT22;17263;48.160;11.452;2023-03-31T04:21:24;8.90;99.90
30473;DHT22;17263;48.160;11.452;2023-03-31T04:23:52;8.90;99.90
30473;DHT22;17263;48.160;11.452;2023-03-31T04:26:28;8.90;99.90
30473;DHT22;17263;48.160;11.452;2023-03-31T04:29:08;9.00;99.90
30473;DHT22;17263;48.160;11.452;2023-03-31T04:31:35;8.90;99.90
30473;DHT22;17263;48.160;11.452;2023-03-31T04:34:04;8.90;99.90
30473;DHT22;17263;48.160;11.452;2023-03-31T04:36:32;8.80;99.90
30473;DHT22;17263;48.160;11.452;2023-03-31T04:38:58;8.80;99.90
30473;DHT22;17263;48.160;11.452;2023-03-31T04:41:25;8.80;99.90
30473;DHT22;17263;48.160;11.452;2023-03-31T04:43:55;8.80;99.90
30473;DHT22;17263;48.160;11.452;2023-03-31T04:46:21;8.80;99.90
30473;DHT22;17263;48.160;11.452;2023-03-31T04:48:47;8.80;99.90
30473;DHT22;17263;48.160;11.452;2023-03-31T04:51:13;8.80;99.90
30473;DHT22;17263;48.160;11.452;2023-03-31T04:53:42;8.80;99.90
30473;DHT22;17263;48.160;11.452;2023-03-31T04:56:08;8.80;99.90
30473;DHT22;17263;48.160;11.452;2023-03-31T04:58:34;8.90;99.90
30473;DHT22;17263;48.160;11.452;2023-03-31T05:01:00;8.80;99.90
30473;DHT22;17263;48.160;11.452;2023-03-31T05:03:26;8.80;99.90
30473;DHT22;17263;48.160;11.452;2023-03-31T05:05:52;8.70;99.90
30473;DHT22;17263;48.160;11.452;2023-03-31T05:08:18;8.70;99.90
30473;DHT22;17263;48.160;11.452;2023-03-31T05:10:45;8.60;99.90
30473;DHT22;17263;48.160;11.452;2023-03-31T05:13:11;8.60;99.90
30473;DHT22;17263;48.160;11.452;2023-03-31T05:15:38;8.60;99.90
30473;DHT22;17263;48.160;11.452;2023-03-31T05:18:05;8.70;99.90
30473;DHT22;17263;48.160;11.452;2023-03-31T05:20:31;8.70;99.90
30473;DHT22;17263;48.160;11.452;2023-03-31T05:22:57;8.60;99.90
30473;DHT22;17263;48.160;11.452;2023-03-31T05:25:24;8.60;99.90
30473;DHT22;17263;48.160;11.452;2023-03-31T05:27:50;8.60;99.90
30473;DHT22;17263;48.160;11.452;2023-03-31T05:30:17;8.60;99.90
30473;DHT22;17263;48.160;11.452;2023-03-31T05:32:43;8.60;99.90
30473;DHT22;17263;48.160;11.452;2023-03-31T05:35:10;8.60;99.90
30473;DHT22;17263;48.160;11.452;2023-03-31T05:37:36;8.60;99.90
30473;DHT22;17263;48.160;11.452;2023-03-31T05:40:02;8.60;99.90
30473;DHT22;17263;48.160;11.452;2023-03-31T05:42:32;8.60;99.90
30473;DHT22;17263;48.160;11.452;2023-03-31T05:44:58;8.70;99.90
30473;DHT22;17263;48.160;11.452;2023-03-31T05:47:24;8.70;99.90
30473;DHT22;17263;48.160;11.452;2023-03-31T05:49:51;8.70;99.90
30473;DHT22;17263;48.160;11.452;2023-03-31T05:52:18;8.70;99.90
30473;DHT22;17263;48.160;11.452;2023-03-31T05:54:44;8.70;99.90
30473;DHT22;17263;48.160;11.452;2023-03-31T05:57:10;8.70;99.90
30473;DHT22;17263;48.160;11.452;2023-03-31T05:59:36;8.70;99.90
30473;DHT22;17263;48.160;11.452;2023-03-31T06:02:03;8.70;99.90
30473;DHT22;17263;48.160;11.452;2023-03-31T06:04:30;8.70;99.90
30473;DHT22;17263;48.160;11.452;2023-03-31T06:06:57;8.80;99.90
30473;DHT22;17263;48.160;11.452;2023-03-31T06:09:24;8.90;99.90
30473;DHT22;17263;48.160;11.452;2023-03-31T06:11:50;9.00;99.90
30473;DHT22;17263;48.160;11.452;2023-03-31T06:14:17;9.00;99.90
30473;DHT22;17263;48.160;11.452;2023-03-31T06:16:43;9.00;99.90
30473;DHT22;17263;48.160;11.452;2023-03-31T06:19:09;9.10;99.90
30473;DHT22;17263;48.160;11.452;2023-03-31T06:21:35;9.10;99.90
30473;DHT22;17263;48.160;11.452;2023-03-31T06:24:01;9.10;99.90
30473;DHT22;17263;48.160;11.452;2023-03-31T06:26:27;9.10;99.90
30473;DHT22;17263;48.160;11.452;2023-03-31T06:28:53;9.10;99.90
30473;DHT22;17263;48.160;11.452;2023-03-31T06:31:22;9.10;99.90
30473;DHT22;17263;48.160;11.452;2023-03-31T06:33:48;9.20;99.90
30473;DHT22;17263;48.160;11.452;2023-03-31T06:36:17;9.20;99.90
30473;DHT22;17263;48.160;11.452;2023-03-31T06:38:44;9.30;99.90
30473;DHT22;17263;48.160;11.452;2023-03-31T06:41:12;9.30;99.90
30473;DHT22;17263;48.160;11.452;2023-03-31T06:43:39;9.40;99.90
30473;DHT22;17263;48.160;11.452;2023-03-31T06:46:05;9.40;99.90
30473;DHT22;17263;48.160;11.452;2023-03-31T06:48:32;9.50;99.90
30473;DHT22;17263;48.160;11.452;2023-03-31T06:50:59;9.50;99.90
30473;DHT22;17263;48.160;11.452;2023-03-31T06:53:27;9.60;99.90
30473;DHT22;17263;48.160;11.452;2023-03-31T06:55:53;9.60;99.90
30473;DHT22;17263;48.160;11.452;2023-03-31T06:58:19;9.60;99.90
30473;DHT22;17263;48.160;11.452;2023-03-31T07:00:45;9.60;99.90
30473;DHT22;17263;48.160;11.452;2023-03-31T07:03:12;9.60;99.90
30473;DHT22;17263;48.160;11.452;2023-03-31T07:05:38;9.60;99.90
30473;DHT22;17263;48.160;11.452;2023-03-31T07:08:04;9.50;99.90
30473;DHT22;17263;48.160;11.452;2023-03-31T07:10:31;9.50;99.90
30473;DHT22;17263;48.160;11.452;2023-03-31T07:12:58;9.60;99.90
30473;DHT22;17263;48.160;11.452;2023-03-31T07:15:24;9.60;99.90
30473;DHT22;17263;48.160;11.452;2023-03-31T07:17:51;9.50;99.90
30473;DHT22;17263;48.160;11.452;2023-03-31T07:20:18;9.50;99.90
30473;DHT22;17263;48.160;11.452;2023-03-31T07:22:46;9.40;99.90
30473;DHT22;17263;48.160;11.452;2023-03-31T07:25:14;9.40;99.90
30473;DHT22;17263;48.160;11.452;2023-03-31T07:27:42;9.40;99.90
30473;DHT22;17263;48.160;11.452;2023-03-31T07:30:10;9.40;99.90
30473;DHT22;17263;48.160;11.452;2023-03-31T07:32:37;9.30;99.90
30473;DHT22;17263;48.160;11.452;2023-03-31T07:35:10;9.20;99.90
30473;DHT22;17263;48.160;11.452;2023-03-31T07:37:42;9.30;99.90
30473;DHT22;17263;48.160;11.452;2023-03-31T07:40:11;9.20;99.90
30473;DHT22;17263;48.160;11.452;2023-03-31T07:42:37;9.20;99.90
30473;DHT22;17263;48.160;11.452;2023-03-31T07:45:05;9.20;99.90
30473;DHT22;17263;48.160;11.452;2023-03-31T07:47:32;9.20;99.90
30473;DHT22;17263;48.160;11.452;2023-03-31T07:49:58;9.30;99.90
30473;DHT22;17263;48.160;11.452;2023-03-31T07:52:24;9.30;99.90
30473;DHT22;17263;48.160;11.452;2023-03-31T07:54:50;9.40;99.90
30473;DHT22;17263;48.160;11.452;2023-03-31T07:57:17;9.40;99.90
30473;DHT22;17263;48.160;11.452;2023-03-31T07:59:44;9.50;99.90
30473;DHT22;17263;48.160;11.452;2023-03-31T08:02:12;9.50;99.90
30473;DHT22;17263;48.160;11.452;2023-03-31T08:04:39;9.60;99.90
30473;DHT22;17263;48.160;11.452;2023-03-31T08:07:08;9.60;99.90
30473;DHT22;17263;48.160;11.452;2023-03-31T08:09:34;9.70;99.90
30473;DHT22;17263;48.160;11.452;2023-03-31T08:12:00;9.80;99.90
30473;DHT22;17263;48.160;11.452;2023-03-31T08:14:26;10.00;99.90
30473;DHT22;17263;48.160;11.452;2023-03-31T08:16:53;10.10;99.90
30473;DHT22;17263;48.160;11.452;2023-03-31T08:19:20;10.10;99.90
30473;DHT22;17263;48.160;11.452;2023-03-31T08:21:47;10.10;99.90
30473;DHT22;17263;48.160;11.452;2023-03-31T08:24:13;10.10;99.90
30473;DHT22;17263;48.160;11.452;2023-03-31T08:26:40;10.10;99.90
30473;DHT22;17263;48.160;11.452;2023-03-31T08:29:06;10.10;99.90
30473;DHT22;17263;48.160;11.452;2023-03-31T08:31:32;10.10;99.90
30473;DHT22;17263;48.160;11.452;2023-03-31T08:33:58;10.10;99.90
30473;DHT22;17263;48.160;11.452;2023-03-31T08:36:25;10.10;99.90
30473;DHT22;17263;48.160;11.452;2023-03-31T08:38:52;10.20;99.90
30473;DHT22;17263;48.160;11.452;2023-03-31T08:44:14;10.30;99.90
30473;DHT22;17263;48.160;11.452;2023-03-31T08:46:42;10.30;99.90
30473;DHT22;17263;48.160;11.452;2023-03-31T08:49:13;10.30;99.90
30473;DHT22;17263;48.160;11.452;2023-03-31T08:51:49;10.30;99.90
30473;DHT22;17263;48.160;11.452;2023-03-31T08:56:53;10.40;99.90
30473;DHT22;17263;48.160;11.452;2023-03-31T08:59:30;10.50;99.90
30473;DHT22;17263;48.160;11.452;2023-03-31T09:13:05;11.00;99.90
30473;DHT22;17263;48.160;11.452;2023-03-31T09:15:52;11.10;99.90
30473;DHT22;17263;48.160;11.452;2023-03-31T09:18:31;11.20;99.90
30473;DHT22;17263;48.160;11.452;2023-03-31T09:21:27;11.30;99.90
30473;DHT22;17263;48.160;11.452;2023-03-31T09:24:11;11.40;99.90
30473;DHT22;17263;48.160;11.452;2023-03-31T09:26:55;11.80;99.90
30473;DHT22;17263;48.160;11.452;2023-03-31T09:29:51;12.10;99.90
30473;DHT22;17263;48.160;11.452;2023-03-31T09:32:19;12.70;99.90
30473;DHT22;17263;48.160;11.452;2023-03-31T09:34:46;13.30;99.90
30473;DHT22;17263;48.160;11.452;2023-03-31T09:37:15;13.60;99.90
30473;DHT22;17263;48.160;11.452;2023-03-31T09:39:41;13.90;99.90
30473;DHT22;17263;48.160;11.452;2023-03-31T09:42:12;14.10;99.90
30473;DHT22;17263;48.160;11.452;2023-03-31T09:44:48;14.30;99.90
30473;DHT22;17263;48.160;11.452;2023-03-31T09:47:30;14.40;99.90
30473;DHT22;17263;48.160;11.452;2023-03-31T09:49:57;14.40;99.90
30473;DHT22;17263;48.160;11.452;2023-03-31T09:52:30;14.50;99.90
30473;DHT22;17263;48.160;11.452;2023-03-31T09:55:02;14.50;99.90
30473;DHT22;17263;48.160;11.452;2023-03-31T09:57:33;14.60;99.90
30473;DHT22;17263;48.160;11.452;2023-03-31T10:02:43;14.70;99.90
30473;DHT22;17263;48.160;11.452;2023-03-31T10:16:19;14.50;99.90
30473;DHT22;17263;48.160;11.452;2023-03-31T10:18:46;14.70;99.90
30473;DHT22;17263;48.160;11.452;2023-03-31T10:21:21;14.60;99.90
30473;DHT22;17263;48.160;11.452;2023-03-31T10:23:49;14.60;99.90
30473;DHT22;17263;48.160;11.452;2023-03-31T10:26:19;14.80;99.90
30473;DHT22;17263;48.160;11.452;2023-03-31T10:28:47;14.80;99.90
30473;DHT22;17263;48.160;11.452;2023-03-31T10:31:18;14.90;99.90
30473;DHT22;17263;48.160;11.452;2023-03-31T10:33:49;14.90;99.90
30473;DHT22;17263;48.160;11.452;2023-03-31T10:36:23;15.00;99.90
30473;DHT22;17263;48.160;11.452;2023-03-31T10:38:51;15.10;99.90
30473;DHT22;17263;48.160;11.452;2023-03-31T10:41:21;15.30;99.90
30473;DHT22;17263;48.160;11.452;2023-03-31T10:43:53;15.40;99.90
30473;DHT22;17263;48.160;11.452;2023-03-31T10:46:19;15.40;99.90
30473;DHT22;17263;48.160;11.452;2023-03-31T10:48:46;15.30;99.90
30473;DHT22;17263;48.160;11.452;2023-03-31T10:51:19;15.20;99.90
30473;DHT22;17263;48.160;11.452;2023-03-31T10:53:47;15.20;99.90
30473;DHT22;17263;48.160;11.452;2023-03-31T11:04:56;15.00;99.90
30473;DHT22;17263;48.160;11.452;2023-03-31T11:15:51;14.70;99.90
30473;DHT22;17263;48.160;11.452;2023-03-31T11:18:51;14.60;99.90
30473;DHT22;17263;48.160;11.452;2023-03-31T11:21:49;14.40;99.90
30473;DHT22;17263;48.160;11.452;2023-03-31T11:24:43;13.90;99.90
30473;DHT22;17263;48.160;11.452;2023-03-31T11:30:23;12.80;99.90
30473;DHT22;17263;48.160;11.452;2023-03-31T11:33:27;12.30;99.90
30473;DHT22;17263;48.160;11.452;2023-03-31T11:38:46;11.90;99.90
30473;DHT22;17263;48.160;11.452;2023-03-31T11:41:33;11.90;99.90
30473;DHT22;17263;48.160;11.452;2023-03-31T11:44:07;12.00;99.90
30473;DHT22;17263;48.160;11.452;2023-03-31T11:46:52;12.10;99.90
30473;DHT22;17263;48.160;11.452;2023-03-31T11:49:29;12.30;99.90
30473;DHT22;17263;48.160;11.452;2023-03-31T11:52:15;12.50;99.90
30473;DHT22;17263;48.160;11.452;2023-03-31T11:54:45;12.60;99.90
30473;DHT22;17263;48.160;11.452;2023-03-31T11:57:23;12.80;99.90
30473;DHT22;17263;48.160;11.452;2023-03-31T11:59:56;13.10;99.90
30473;DHT22;17263;48.160;11.452;2023-03-31T12:05:21;13.70;99.90
30473;DHT22;17263;48.160;11.452;2023-03-31T12:07:58;13.70;99.90
30473;DHT22;17263;48.160;11.452;2023-03-31T12:10:36;13.80;99.90
30473;DHT22;17263;48.160;11.452;2023-03-31T12:13:43;13.90;99.90
30473;DHT22;17263;48.160;11.452;2023-03-31T12:16:21;14.10;99.90
30473;DHT22;17263;48.160;11.452;2023-03-31T12:19:06;14.20;99.90
30473;DHT22;17263;48.160;11.452;2023-03-31T12:21:37;14.20;99.90
30473;DHT22;17263;48.160;11.452;2023-03-31T12:24:05;14.20;99.90
30473;DHT22;17263;48.160;11.452;2023-03-31T12:31:54;14.30;99.90
30473;DHT22;17263;48.160;11.452;2023-03-31T12:34:22;14.30;99.90
30473;DHT22;17263;48.160;11.452;2023-03-31T12:37:16;14.40;99.90
30473;DHT22;17263;48.160;11.452;2023-03-31T12:45:30;14.20;99.90
30473;DHT22;17263;48.160;11.452;2023-03-31T12:48:24;14.20;99.90
30473;DHT22;17263;48.160;11.452;2023-03-31T12:53:57;14.10;99.90
30473;DHT22;17263;48.160;11.452;2023-03-31T12:56:25;14.10;99.90
30473;DHT22;17263;48.160;11.452;2023-03-31T12:58:51;14.20;99.90
30473;DHT22;17263;48.160;11.452;2023-03-31T13:01:18;14.20;99.90
30473;DHT22;17263;48.160;11.452;2023-03-31T13:04:17;14.30;99.90
30473;DHT22;17263;48.160;11.452;2023-03-31T13:06:54;14.30;99.90
30473;DHT22;17263;48.160;11.452;2023-03-31T13:11:56;14.30;99.90
30473;DHT22;17263;48.160;11.452;2023-03-31T13:14:23;14.10;99.90
30473;DHT22;17263;48.160;11.452;2023-03-31T13:16:53;13.80;99.90
30473;DHT22;17263;48.160;11.452;2023-03-31T13:19:36;13.60;99.90
30473;DHT22;17263;48.160;11.452;2023-03-31T13:22:04;13.30;99.90
30473;DHT22;17263;48.160;11.452;2023-03-31T13:24:32;13.10;99.90
30473;DHT22;17263;48.160;11.452;2023-03-31T13:27:30;13.00;99.90
30473;DHT22;17263;48.160;11.452;2023-03-31T13:29:57;13.10;99.90
30473;DHT22;17263;48.160;11.452;2023-03-31T13:32:25;13.20;99.90
30473;DHT22;17263;48.160;11.452;2023-03-31T13:35:03;13.40;99.90
30473;DHT22;17263;48.160;11.452;2023-03-31T13:45:55;13.70;99.90
30473;DHT22;17263;48.160;11.452;2023-03-31T13:51:41;14.00;99.90
30473;DHT22;17263;48.160;11.452;2023-03-31T14:05:27;14.20;99.90
30473;DHT22;17263;48.160;11.452;2023-03-31T14:10:39;14.10;99.90
30473;DHT22;17263;48.160;11.452;2023-03-31T14:13:15;14.00;99.90
30473;DHT22;17263;48.160;11.452;2023-03-31T14:15:47;13.90;99.90
30473;DHT22;17263;48.160;11.452;2023-03-31T14:18:29;13.80;99.90
30473;DHT22;17263;48.160;11.452;2023-03-31T14:35:21;13.20;99.90
30473;DHT22;17263;48.160;11.452;2023-03-31T14:37:52;13.10;99.90
30473;DHT22;17263;48.160;11.452;2023-03-31T14:40:19;12.90;99.90
30473;DHT22;17263;48.160;11.452;2023-03-31T14:42:45;12.80;99.90
30473;DHT22;17263;48.160;11.452;2023-03-31T14:45:20;12.30;99.90
30473;DHT22;17263;48.160;11.452;2023-03-31T14:48:13;11.70;99.90
30473;DHT22;17263;48.160;11.452;2023-03-31T14:50:44;11.40;99.90
30473;DHT22;17263;48.160;11.452;2023-03-31T14:53:23;11.10;99.90
30473;DHT22;17263;48.160;11.452;2023-03-31T14:55:50;11.00;99.90
30473;DHT22;17263;48.160;11.452;2023-03-31T14:58:24;10.80;99.90
30473;DHT22;17263;48.160;11.452;2023-03-31T15:00:52;10.60;99.90
30473;DHT22;17263;48.160;11.452;2023-03-31T15:03:18;10.40;99.90
30473;DHT22;17263;48.160;11.452;2023-03-31T15:05:45;10.40;99.90
30473;DHT22;17263;48.160;11.452;2023-03-31T15:08:17;10.40;99.90
30473;DHT22;17263;48.160;11.452;2023-03-31T15:10:48;10.80;99.90
30473;DHT22;17263;48.160;11.452;2023-03-31T15:16:02;11.30;99.90
30473;DHT22;17263;48.160;11.452;2023-03-31T15:18:43;11.50;99.90
30473;DHT22;17263;48.160;11.452;2023-03-31T15:21:21;11.50;99.90
30473;DHT22;17263;48.160;11.452;2023-03-31T15:23:53;11.60;99.90
30473;DHT22;17263;48.160;11.452;2023-03-31T15:26:24;11.60;99.90
30473;DHT22;17263;48.160;11.452;2023-03-31T15:28:54;11.80;99.90
30473;DHT22;17263;48.160;11.452;2023-03-31T15:31:22;11.90;99.90
30473;DHT22;17263;48.160;11.452;2023-03-31T15:33:52;12.00;99.90
30473;DHT22;17263;48.160;11.452;2023-03-31T15:36:19;12.00;99.90
30473;DHT22;17263;48.160;11.452;2023-03-31T15:38:46;11.90;99.90
30473;DHT22;17263;48.160;11.452;2023-03-31T15:41:19;12.00;99.90
30473;DHT22;17263;48.160;11.452;2023-03-31T15:43:49;11.90;99.90
30473;DHT22;17263;48.160;11.452;2023-03-31T15:46:31;11.90;99.90
30473;DHT22;17263;48.160;11.452;2023-03-31T15:49:21;11.90;99.90
30473;DHT22;17263;48.160;11.452;2023-03-31T15:51:49;12.00;99.90
30473;DHT22;17263;48.160;11.452;2023-03-31T15:54:38;12.10;99.90
30473;DHT22;17263;48.160;11.452;2023-03-31T15:57:07;12.10;99.90
30473;DHT22;17263;48.160;11.452;2023-03-31T15:59:50;12.00;99.90
30473;DHT22;17263;48.160;11.452;2023-03-31T16:02:22;12.10;99.90
30473;DHT22;17263;48.160;11.452;2023-03-31T16:04:49;12.10;99.90
30473;DHT22;17263;48.160;11.452;2023-03-31T16:07:25;12.00;99.90
30473;DHT22;17263;48.160;11.452;2023-03-31T16:10:08;12.10;99.90
30473;DHT22;17263;48.160;11.452;2023-03-31T16:12:41;12.20;99.90
30473;DHT22;17263;48.160;11.452;2023-03-31T16:15:20;12.20;99.90
30473;DHT22;17263;48.160;11.452;2023-03-31T16:17:53;12.30;99.90
30473;DHT22;17263;48.160;11.452;2023-03-31T16:20:30;12.30;99.90
30473;DHT22;17263;48.160;11.452;2023-03-31T16:22:58;12.30;99.90
30473;DHT22;17263;48.160;11.452;2023-03-31T16:25:26;12.40;99.90
30473;DHT22;17263;48.160;11.452;2023-03-31T16:27:57;12.40;99.90
30473;DHT22;17263;48.160;11.452;2023-03-31T16:30:38;12.30;99.90
30473;DHT22;17263;48.160;11.452;2023-03-31T16:33:08;12.20;99.90
30473;DHT22;17263;48.160;11.452;2023-03-31T16:35:36;12.00;99.90
30473;DHT22;17263;48.160;11.452;2023-03-31T16:38:04;12.00;99.90
30473;DHT22;17263;48.160;11.452;2023-03-31T16:40:35;12.00;99.90
30473;DHT22;17263;48.160;11.452;2023-03-31T16:45:40;11.90;99.90
30473;DHT22;17263;48.160;11.452;2023-03-31T16:48:06;11.80;99.90
30473;DHT22;17263;48.160;11.452;2023-03-31T16:50:32;11.80;99.90
30473;DHT22;17263;48.160;11.452;2023-03-31T16:53:00;11.80;99.90
30473;DHT22;17263;48.160;11.452;2023-03-31T16:55:26;11.70;99.90
30473;DHT22;17263;48.160;11.452;2023-03-31T16:57:52;11.30;99.90
30473;DHT22;17263;48.160;11.452;2023-03-31T17:00:19;10.90;99.90
30473;DHT22;17263;48.160;11.452;2023-03-31T17:02:45;10.60;99.90
30473;DHT22;17263;48.160;11.452;2023-03-31T17:05:12;10.20;99.90
30473;DHT22;17263;48.160;11.452;2023-03-31T17:07:38;10.00;99.90
30473;DHT22;17263;48.160;11.452;2023-03-31T17:10:04;9.80;99.90
30473;DHT22;17263;48.160;11.452;2023-03-31T17:12:31;9.70;99.90
30473;DHT22;17263;48.160;11.452;2023-03-31T17:14:57;9.50;99.90
30473;DHT22;17263;48.160;11.452;2023-03-31T17:17:23;9.40;99.90
30473;DHT22;17263;48.160;11.452;2023-03-31T17:19:49;9.30;99.90
30473;DHT22;17263;48.160;11.452;2023-03-31T17:22:15;9.20;99.90
30473;DHT22;17263;48.160;11.452;2023-03-31T17:24:41;9.10;99.90
30473;DHT22;17263;48.160;11.452;2023-03-31T17:27:07;9.10;99.90
30473;DHT22;17263;48.160;11.452;2023-03-31T17:29:33;9.10;99.90
30473;DHT22;17263;48.160;11.452;2023-03-31T17:31:59;9.00;99.90
30473;DHT22;17263;48.160;11.452;2023-03-31T17:34:25;9.00;99.90
30473;DHT22;17263;48.160;11.452;2023-03-31T17:36:51;8.90;99.90
30473;DHT22;17263;48.160;11.452;2023-03-31T17:39:20;8.80;99.90
30473;DHT22;17263;48.160;11.452;2023-03-31T17:41:46;8.80;99.90
30473;DHT22;17263;48.160;11.452;2023-03-31T17:44:13;8.70;99.90
30473;DHT22;17263;48.160;11.452;2023-03-31T17:46:39;8.60;99.90
30473;DHT22;17263;48.160;11.452;2023-03-31T17:49:05;8.60;99.90
30473;DHT22;17263;48.160;11.452;2023-03-31T17:51:31;8.60;99.90
30473;DHT22;17263;48.160;11.452;2023-03-31T17:53:59;8.60;99.90
30473;DHT22;17263;48.160;11.452;2023-03-31T17:56:25;8.60;99.90
30473;DHT22;17263;48.160;11.452;2023-03-31T17:58:51;8.60;99.90
30473;DHT22;17263;48.160;11.452;2023-03-31T18:01:26;8.60;99.90
30473;DHT22;17263;48.160;11.452;2023-03-31T18:03:54;8.60;99.90
30473;DHT22;17263;48.160;11.452;2023-03-31T18:06:20;8.60;99.90
30473;DHT22;17263;48.160;11.452;2023-03-31T18:08:47;8.60;99.90
30473;DHT22;17263;48.160;11.452;2023-03-31T18:11:13;8.60;99.90
30473;DHT22;17263;48.160;11.452;2023-03-31T18:13:40;8.60;99.90
30473;DHT22;17263;48.160;11.452;2023-03-31T18:16:08;8.60;99.90
30473;DHT22;17263;48.160;11.452;2023-03-31T18:18:35;8.50;99.90
30473;DHT22;17263;48.160;11.452;2023-03-31T18:21:03;8.50;99.90